sensor_id;sensor_type;location;lat;lon;timestamp;temperature;humidity
26691;DHT22;14307;51.718;8.938;2023-06-10T00:00:47;17.70;99.90
26691;DHT22;14307;51.718;8.938;2023-06-10T00:03:14;17.70;99.90
26691;DHT22;14307;51.718;8.938;2023-06-10T00:05:41;17.70;99.90
26691;DHT22;14307;51.718;8.938;2023-06-10T00:08:07;17.70;99.90
26691;DHT22;14307;51.718;8.938;2023-06-10T00:10:35;17.70;99.90
26691;DHT22;14307;51.718;8.938;2023-06-10T00:13:05;17.70;99.90
26691;DHT22;14307;51.718;8.938;2023-06-10T00:15:35;17.80;99.90
26691;DHT22;14307;51.718;8.938;2023-06-10T00:18:02;17.80;99.90
26691;DHT22;14307;51.718;8.938;2023-06-10T00:20:30;17.80;99.90
26691;DHT22;14307;51.718;8.938;2023-06-10T00:22:58;17.80;99.90
26691;DHT22;14307;51.718;8.938;2023-06-10T00:25:25;17.80;99.90
26691;DHT22;14307;51.718;8.938;2023-06-10T00:27:52;17.80;99.90
26691;DHT22;14307;51.718;8.938;2023-06-10T00:30:20;17.80;99.90
26691;DHT22;14307;51.718;8.938;2023-06-10T00:32:48;17.70;99.90
26691;DHT22;14307;51.718;8.938;2023-06-10T00:35:14;17.70;99.90
26691;DHT22;14307;51.718;8.938;2023-06-10T00:37:42;17.80;99.90
26691;DHT22;14307;51.718;8.938;2023-06-10T00:40:09;17.70;99.90
26691;DHT22;14307;51.718;8.938;2023-06-10T00:42:36;17.70;99.90
26691;DHT22;14307;51.718;8.938;2023-06-10T00:45:03;17.70;99.90
26691;DHT22;14307;51.718;8.938;2023-06-10T00:47:30;17.70;99.90
26691;DHT22;14307;51.718;8.938;2023-06-10T00:49:57;17.60;99.90
26691;DHT22;14307;51.718;8.938;2023-06-10T00:52:28;17.60;99.90
26691;DHT22;14307;51.718;8.938;2023-06-10T00:54:55;17.40;99.90
26691;DHT22;14307;51.718;8.938;2023-06-10T00:57:22;17.40;99.90
26691;DHT22;14307;51.718;8.938;2023-06-10T00:59:49;17.20;99.90
26691;DHT22;14307;51.718;8.938;2023-06-10T01:02:16;17.00;99.90
26691;DHT22;14307;51.718;8.938;2023-06-10T01:04:43;16.80;99.90
26691;DHT22;14307;51.718;8.938;2023-06-10T01:07:27;16.70;99.90
26691;DHT22;14307;51.718;8.938;2023-06-10T01:10:02;16.50;99.90
26691;DHT22;14307;51.718;8.938;2023-06-10T01:12:39;16.30;99.90
26691;DHT22;14307;51.718;8.938;2023-06-10T01:15:09;16.10;99.90
26691;DHT22;14307;51.718;8.938;2023-06-10T01:18:00;16.00;99.90
26691;DHT22;14307;51.718;8.938;2023-06-10T01:20:31;16.00;99.90
26691;DHT22;14307;51.718;8.938;2023-06-10T01:22:59;15.80;99.90
26691;DHT22;14307;51.718;8.938;2023-06-10T01:25:27;15.70;99.90
26691;DHT22;14307;51.718;8.938;2023-06-10T01:28:02;15.70;99.90
26691;DHT22;14307;51.718;8.938;2023-06-10T01:30:39;15.70;99.90
26691;DHT22;14307;51.718;8.938;2023-06-10T01:33:11;15.50;99.90
26691;DHT22;14307;51.718;8.938;2023-06-10T01:35:40;15.40;99.90
26691;DHT22;14307;51.718;8.938;2023-06-10T01:38:08;15.30;99.90
26691;DHT22;14307;51.718;8.938;2023-06-10T01:40:35;15.20;99.90
26691;DHT22;14307;51.718;8.938;2023-06-10T01:43:02;15.30;99.90
26691;DHT22;14307;51.718;8.938;2023-06-10T01:45:29;15.20;99.90
26691;DHT22;14307;51.718;8.938;2023-06-10T01:47:56;15.10;99.90
26691;DHT22;14307;51.718;8.938;2023-06-10T01:50:23;15.20;99.90
26691;DHT22;14307;51.718;8.938;2023-06-10T01:52:49;15.20;99.90
26691;DHT22;14307;51.718;8.938;2023-06-10T01:55:16;15.30;99.90
26691;DHT22;14307;51.718;8.938;2023-06-10T01:57:43;15.30;99.90
26691;DHT22;14307;51.718;8.938;2023-06-10T02:00:10;15.40;99.90
26691;DHT22;14307;51.718;8.938;2023-06-10T02:02:44;15.60;99.90
26691;DHT22;14307;51.718;8.938;2023-06-10T02:05:11;15.70;99.90
26691;DHT22;14307;51.718;8.938;2023-06-10T02:07:38;15.70;99.90
26691;DHT22;14307;51.718;8.938;2023-06-10T02:10:05;15.70;99.90
26691;DHT22;14307;51.718;8.938;2023-06-10T02:12:33;15.70;99.90
26691;DHT22;14307;51.718;8.938;2023-06-10T02:14:59;15.60;99.90
26691;DHT22;14307;51.718;8.938;2023-06-10T02:17:26;15.50;99.90
26691;DHT22;14307;51.718;8.938;2023-06-10T02:19:53;15.50;99.90
26691;DHT22;14307;51.718;8.938;2023-06-10T02:22:22;15.40;99.90
26691;DHT22;14307;51.718;8.938;2023-06-10T02:24:49;15.40;99.90
26691;DHT22;14307;51.718;8.938;2023-06-10T02:27:17;15.40;99.90
26691;DHT22;14307;51.718;8.938;2023-06-10T02:29:44;15.40;99.90
26691;DHT22;14307;51.718;8.938;2023-06-10T02:32:11;15.50;99.90
26691;DHT22;14307;51.718;8.938;2023-06-10T02:34:39;15.40;99.90
26691;DHT22;14307;51.718;8.938;2023-06-10T02:37:06;15.30;99.90
26691;DHT22;14307;51.718;8.938;2023-06-10T02:39:34;15.30;99.90
26691;DHT22;14307;51.718;8.938;2023-06-10T02:42:04;15.40;99.90
26691;DHT22;14307;51.718;8.938;2023-06-10T02:44:32;15.10;99.90
26691;DHT22;14307;51.718;8.938;2023-06-10T02:46:59;15.00;99.90
26691;DHT22;14307;51.718;8.938;2023-06-10T02:49:26;15.00;99.90
26691;DHT22;14307;51.718;8.938;2023-06-10T02:51:55;15.10;99.90
26691;DHT22;14307;51.718;8.938;2023-06-10T02:54:23;14.90;99.90
26691;DHT22;14307;51.718;8.938;2023-06-10T02:56:52;14.70;99.90
26691;DHT22;14307;51.718;8.938;2023-06-10T02:59:22;14.50;99.90
26691;DHT22;14307;51.718;8.938;2023-06-10T03:01:49;14.60;99.90
26691;DHT22;14307;51.718;8.938;2023-06-10T03:04:16;14.50;99.90
26691;DHT22;14307;51.718;8.938;2023-06-10T03:06:52;14.40;99.90
26691;DHT22;14307;51.718;8.938;2023-06-10T03:09:24;14.30;99.90
26691;DHT22;14307;51.718;8.938;2023-06-10T03:11:55;14.30;99.90
26691;DHT22;14307;51.718;8.938;2023-06-10T03:14:22;14.20;99.90
26691;DHT22;14307;51.718;8.938;2023-06-10T03:16:49;14.30;99.90
26691;DHT22;14307;51.718;8.938;2023-06-10T03:19:15;14.30;99.90
26691;DHT22;14307;51.718;8.938;2023-06-10T03:21:49;14.40;99.90
26691;DHT22;14307;51.718;8.938;2023-06-10T03:24:21;14.50;99.90
26691;DHT22;14307;51.718;8.938;2023-06-10T03:26:48;14.50;99.90
26691;DHT22;14307;51.718;8.938;2023-06-10T03:29:16;14.50;99.90
26691;DHT22;14307;51.718;8.938;2023-06-10T03:31:43;14.50;99.90
26691;DHT22;14307;51.718;8.938;2023-06-10T03:34:11;14.50;99.90
26691;DHT22;14307;51.718;8.938;2023-06-10T03:36:37;14.50;99.90
26691;DHT22;14307;51.718;8.938;2023-06-10T03:39:10;14.60;99.90
26691;DHT22;14307;51.718;8.938;2023-06-10T03:41:37;14.70;99.90
26691;DHT22;14307;51.718;8.938;2023-06-10T03:44:04;14.70;99.90
26691;DHT22;14307;51.718;8.938;2023-06-10T03:46:31;14.80;99.90
26691;DHT22;14307;51.718;8.938;2023-06-10T03:48:58;14.80;99.90
26691;DHT22;14307;51.718;8.938;2023-06-10T03:51:28;14.70;99.90
26691;DHT22;14307;51.718;8.938;2023-06-10T03:53:54;14.60;99.90
26691;DHT22;14307;51.718;8.938;2023-06-10T03:56:21;14.70;99.90
26691;DHT22;14307;51.718;8.938;2023-06-10T03:58:48;14.70;99.90
26691;DHT22;14307;51.718;8.938;2023-06-10T04:01:15;14.70;99.90
26691;DHT22;14307;51.718;8.938;2023-06-10T04:03:44;14.80;99.90
26691;DHT22;14307;51.718;8.938;2023-06-10T04:06:11;14.80;99.90
26691;DHT22;14307;51.718;8.938;2023-06-10T04:08:38;14.80;99.90
26691;DHT22;14307;51.718;8.938;2023-06-10T04:11:05;14.90;99.90
26691;DHT22;14307;51.718;8.938;2023-06-10T04:13:32;14.80;99.90
26691;DHT22;14307;51.718;8.938;2023-06-10T04:15:59;14.80;99.90
26691;DHT22;14307;51.718;8.938;2023-06-10T04:18:26;15.00;99.90
26691;DHT22;14307;51.718;8.938;2023-06-10T04:20:56;15.20;99.90
26691;DHT22;14307;51.718;8.938;2023-06-10T04:23:23;15.20;99.90
26691;DHT22;14307;51.718;8.938;2023-06-10T04:25:50;15.30;99.90
26691;DHT22;14307;51.718;8.938;2023-06-10T04:28:18;15.40;99.90
26691;DHT22;14307;51.718;8.938;2023-06-10T04:30:45;15.60;99.90
26691;DHT22;14307;51.718;8.938;2023-06-10T04:33:12;15.80;99.90
26691;DHT22;14307;51.718;8.938;2023-06-10T04:35:40;16.20;99.90
26691;DHT22;14307;51.718;8.938;2023-06-10T04:38:09;16.50;99.90
26691;DHT22;14307;51.718;8.938;2023-06-10T04:40:36;16.80;99.90
26691;DHT22;14307;51.718;8.938;2023-06-10T04:43:03;17.00;99.90
26691;DHT22;14307;51.718;8.938;2023-06-10T04:45:32;17.20;99.90
26691;DHT22;14307;51.718;8.938;2023-06-10T04:47:59;17.40;99.90
26691;DHT22;14307;51.718;8.938;2023-06-10T04:50:26;17.60;99.90
26691;DHT22;14307;51.718;8.938;2023-06-10T04:52:53;18.00;99.90
26691;DHT22;14307;51.718;8.938;2023-06-10T04:55:24;18.10;99.90
26691;DHT22;14307;51.718;8.938;2023-06-10T04:57:51;18.10;99.90
26691;DHT22;14307;51.718;8.938;2023-06-10T05:00:18;18.10;99.90
26691;DHT22;14307;51.718;8.938;2023-06-10T05:02:45;18.40;99.90
26691;DHT22;14307;51.718;8.938;2023-06-10T05:05:17;18.30;99.90
26691;DHT22;14307;51.718;8.938;2023-06-10T05:07:44;18.60;99.90
26691;DHT22;14307;51.718;8.938;2023-06-10T05:10:11;18.70;99.90
26691;DHT22;14307;51.718;8.938;2023-06-10T05:12:41;18.40;99.90
26691;DHT22;14307;51.718;8.938;2023-06-10T05:15:08;18.30;99.90
26691;DHT22;14307;51.718;8.938;2023-06-10T05:17:35;18.30;99.90
26691;DHT22;14307;51.718;8.938;2023-06-10T05:20:03;18.30;99.90
26691;DHT22;14307;51.718;8.938;2023-06-10T05:22:30;18.40;99.90
26691;DHT22;14307;51.718;8.938;2023-06-10T05:24:56;18.20;99.90
26691;DHT22;14307;51.718;8.938;2023-06-10T05:27:23;18.20;99.90
26691;DHT22;14307;51.718;8.938;2023-06-10T05:29:50;18.20;99.90
26691;DHT22;14307;51.718;8.938;2023-06-10T05:32:18;18.30;99.90
26691;DHT22;14307;51.718;8.938;2023-06-10T05:34:45;18.30;99.90
26691;DHT22;14307;51.718;8.938;2023-06-10T05:37:12;18.40;99.90
26691;DHT22;14307;51.718;8.938;2023-06-10T05:39:39;18.50;99.90
26691;DHT22;14307;51.718;8.938;2023-06-10T05:42:06;18.60;99.90
26691;DHT22;14307;51.718;8.938;2023-06-10T05:44:34;18.80;99.90
26691;DHT22;14307;51.718;8.938;2023-06-10T05:47:01;19.10;99.90
26691;DHT22;14307;51.718;8.938;2023-06-10T05:49:28;19.30;99.90
26691;DHT22;14307;51.718;8.938;2023-06-10T05:51:55;19.40;99.90
26691;DHT22;14307;51.718;8.938;2023-06-10T05:54:24;19.40;99.90
26691;DHT22;14307;51.718;8.938;2023-06-10T05:56:55;19.40;99.90
26691;DHT22;14307;51.718;8.938;2023-06-10T05:59:22;19.40;99.90
26691;DHT22;14307;51.718;8.938;2023-06-10T06:01:49;19.30;99.90
26691;DHT22;14307;51.718;8.938;2023-06-10T06:04:19;19.50;99.90
26691;DHT22;14307;51.718;8.938;2023-06-10T06:06:46;19.70;99.90
26691;DHT22;14307;51.718;8.938;2023-06-10T06:09:12;19.80;99.90
26691;DHT22;14307;51.718;8.938;2023-06-10T06:11:39;19.70;99.90
26691;DHT22;14307;51.718;8.938;2023-06-10T06:14:06;19.80;99.90
26691;DHT22;14307;51.718;8.938;2023-06-10T06:16:33;20.00;99.90
26691;DHT22;14307;51.718;8.938;2023-06-10T06:19:00;20.40;99.90
26691;DHT22;14307;51.718;8.938;2023-06-10T06:21:26;21.00;99.90
26691;DHT22;14307;51.718;8.938;2023-06-10T06:23:53;21.60;99.90
26691;DHT22;14307;51.718;8.938;2023-06-10T06:26:20;22.00;99.90
26691;DHT22;14307;51.718;8.938;2023-06-10T06:28:47;22.30;99.90
26691;DHT22;14307;51.718;8.938;2023-06-10T06:31:14;22.30;99.90
26691;DHT22;14307;51.718;8.938;2023-06-10T06:33:40;22.10;99.90
26691;DHT22;14307;51.718;8.938;2023-06-10T06:36:07;21.60;99.90
26691;DHT22;14307;51.718;8.938;2023-06-10T06:38:34;22.00;99.90
26691;DHT22;14307;51.718;8.938;2023-06-10T06:41:01;22.70;99.90
26691;DHT22;14307;51.718;8.938;2023-06-10T06:43:29;23.20;99.90
26691;DHT22;14307;51.718;8.938;2023-06-10T06:46:09;22.60;99.90
26691;DHT22;14307;51.718;8.938;2023-06-10T06:48:36;22.50;99.90
26691;DHT22;14307;51.718;8.938;2023-06-10T06:51:03;22.60;99.90
26691;DHT22;14307;51.718;8.938;2023-06-10T06:53:29;23.30;99.90
26691;DHT22;14307;51.718;8.938;2023-06-10T06:55:59;23.70;99.90
26691;DHT22;14307;51.718;8.938;2023-06-10T06:58:26;23.90;99.90
26691;DHT22;14307;51.718;8.938;2023-06-10T07:00:53;23.60;99.90
26691;DHT22;14307;51.718;8.938;2023-06-10T07:03:21;24.00;99.90
26691;DHT22;14307;51.718;8.938;2023-06-10T07:05:48;24.50;99.90
26691;DHT22;14307;51.718;8.938;2023-06-10T07:08:15;24.70;99.90
26691;DHT22;14307;51.718;8.938;2023-06-10T07:10:41;24.80;99.90
26691;DHT22;14307;51.718;8.938;2023-06-10T07:13:08;25.10;99.90
26691;DHT22;14307;51.718;8.938;2023-06-10T07:15:35;25.10;99.90
26691;DHT22;14307;51.718;8.938;2023-06-10T07:18:01;24.80;99.90
26691;DHT22;14307;51.718;8.938;2023-06-10T07:20:28;24.70;99.90
26691;DHT22;14307;51.718;8.938;2023-06-10T07:22:55;23.70;99.90
26691;DHT22;14307;51.718;8.938;2023-06-10T07:25:22;23.20;99.90
26691;DHT22;14307;51.718;8.938;2023-06-10T07:27:49;23.40;99.90
26691;DHT22;14307;51.718;8.938;2023-06-10T07:30:16;23.30;99.90
26691;DHT22;14307;51.718;8.938;2023-06-10T07:32:42;23.40;99.90
26691;DHT22;14307;51.718;8.938;2023-06-10T07:35:11;23.40;99.90
26691;DHT22;14307;51.718;8.938;2023-06-10T07:37:38;24.00;99.90
26691;DHT22;14307;51.718;8.938;2023-06-10T07:40:05;24.00;99.90
26691;DHT22;14307;51.718;8.938;2023-06-10T07:42:34;24.00;99.90
26691;DHT22;14307;51.718;8.938;2023-06-10T07:45:03;23.70;99.90
26691;DHT22;14307;51.718;8.938;2023-06-10T07:47:33;23.00;99.90
26691;DHT22;14307;51.718;8.938;2023-06-10T07:50:00;23.60;99.90
26691;DHT22;14307;51.718;8.938;2023-06-10T07:52:27;23.90;99.90
26691;DHT22;14307;51.718;8.938;2023-06-10T07:54:55;23.70;99.90
26691;DHT22;14307;51.718;8.938;2023-06-10T07:57:21;23.70;99.90
26691;DHT22;14307;51.718;8.938;2023-06-10T07:59:48;23.20;99.90
26691;DHT22;14307;51.718;8.938;2023-06-10T08:02:15;22.90;99.90
26691;DHT22;14307;51.718;8.938;2023-06-10T08:04:42;22.80;99.90
26691;DHT22;14307;51.718;8.938;2023-06-10T08:07:09;23.20;99.90
26691;DHT22;14307;51.718;8.938;2023-06-10T08:09:36;23.50;99.90
26691;DHT22;14307;51.718;8.938;2023-06-10T08:12:03;24.00;99.90
26691;DHT22;14307;51.718;8.938;2023-06-10T08:14:30;24.20;99.90
26691;DHT22;14307;51.718;8.938;2023-06-10T08:16:57;24.40;99.90
26691;DHT22;14307;51.718;8.938;2023-06-10T08:19:24;24.10;99.90
26691;DHT22;14307;51.718;8.938;2023-06-10T08:21:51;23.80;99.90
26691;DHT22;14307;51.718;8.938;2023-06-10T08:24:17;24.40;99.90
26691;DHT22;14307;51.718;8.938;2023-06-10T08:26:45;24.80;99.90
26691;DHT22;14307;51.718;8.938;2023-06-10T08:29:12;25.30;99.90
26691;DHT22;14307;51.718;8.938;2023-06-10T08:31:43;25.20;99.90
26691;DHT22;14307;51.718;8.938;2023-06-10T08:34:11;24.90;99.90
26691;DHT22;14307;51.718;8.938;2023-06-10T08:36:38;25.40;99.90
26691;DHT22;14307;51.718;8.938;2023-06-10T08:39:05;26.10;99.90
26691;DHT22;14307;51.718;8.938;2023-06-10T08:41:39;25.70;99.90
26691;DHT22;14307;51.718;8.938;2023-06-10T08:44:21;25.60;99.90
26691;DHT22;14307;51.718;8.938;2023-06-10T08:46:49;26.10;99.90
26691;DHT22;14307;51.718;8.938;2023-06-10T08:49:18;25.70;99.90
26691;DHT22;14307;51.718;8.938;2023-06-10T08:51:59;25.20;99.90
26691;DHT22;14307;51.718;8.938;2023-06-10T08:54:33;25.40;99.90
26691;DHT22;14307;51.718;8.938;2023-06-10T08:57:05;25.80;99.90
26691;DHT22;14307;51.718;8.938;2023-06-10T08:59:33;25.70;99.90
26691;DHT22;14307;51.718;8.938;2023-06-10T09:02:00;25.40;99.90
26691;DHT22;14307;51.718;8.938;2023-06-10T09:04:29;25.30;99.90
26691;DHT22;14307;51.718;8.938;2023-06-10T09:06:57;25.50;99.90
26691;DHT22;14307;51.718;8.938;2023-06-10T09:09:25;25.40;99.90
26691;DHT22;14307;51.718;8.938;2023-06-10T09:11:53;25.50;99.90
26691;DHT22;14307;51.718;8.938;2023-06-10T09:14:20;25.40;99.90
26691;DHT22;14307;51.718;8.938;2023-06-10T09:16:47;25.50;99.90
26691;DHT22;14307;51.718;8.938;2023-06-10T09:19:16;25.20;99.90
26691;DHT22;14307;51.718;8.938;2023-06-10T09:21:43;25.30;99.90
26691;DHT22;14307;51.718;8.938;2023-06-10T09:24:10;25.50;99.90
26691;DHT22;14307;51.718;8.938;2023-06-10T09:26:37;25.50;99.90
26691;DHT22;14307;51.718;8.938;2023-06-10T09:29:06;25.60;99.90
26691;DHT22;14307;51.718;8.938;2023-06-10T09:31:35;25.20;99.90
26691;DHT22;14307;51.718;8.938;2023-06-10T09:36:34;25.90;99.90
26691;DHT22;14307;51.718;8.938;2023-06-10T09:39:02;26.30;99.90
26691;DHT22;14307;51.718;8.938;2023-06-10T09:41:35;26.30;99.90
26691;DHT22;14307;51.718;8.938;2023-06-10T09:44:16;26.60;99.90
26691;DHT22;14307;51.718;8.938;2023-06-10T09:46:45;26.10;99.90
26691;DHT22;14307;51.718;8.938;2023-06-10T09:49:13;25.40;99.90
26691;DHT22;14307;51.718;8.938;2023-06-10T09:51:50;25.00;99.90
26691;DHT22;14307;51.718;8.938;2023-06-10T09:54:19;25.40;99.90
26691;DHT22;14307;51.718;8.938;2023-06-10T09:56:51;26.00;99.90
26691;DHT22;14307;51.718;8.938;2023-06-10T09:59:29;26.20;99.90
26691;DHT22;14307;51.718;8.938;2023-06-10T10:01:59;26.00;99.90
26691;DHT22;14307;51.718;8.938;2023-06-10T10:04:27;25.80;99.90
26691;DHT22;14307;51.718;8.938;2023-06-10T10:06:55;26.50;99.90
26691;DHT22;14307;51.718;8.938;2023-06-10T10:09:22;26.70;99.90
26691;DHT22;14307;51.718;8.938;2023-06-10T10:11:49;26.50;99.90
26691;DHT22;14307;51.718;8.938;2023-06-10T10:14:16;26.00;99.90
26691;DHT22;14307;51.718;8.938;2023-06-10T10:16:45;25.90;99.90
26691;DHT22;14307;51.718;8.938;2023-06-10T10:19:48;26.00;99.90
26691;DHT22;14307;51.718;8.938;2023-06-10T10:22:28;26.00;99.90
26691;DHT22;14307;51.718;8.938;2023-06-10T10:24:57;26.40;99.90
26691;DHT22;14307;51.718;8.938;2023-06-10T10:27:35;26.60;99.90
26691;DHT22;14307;51.718;8.938;2023-06-10T10:30:03;26.30;99.90
26691;DHT22;14307;51.718;8.938;2023-06-10T10:32:40;25.70;99.90
26691;DHT22;14307;51.718;8.938;2023-06-10T10:35:15;26.10;99.90
26691;DHT22;14307;51.718;8.938;2023-06-10T10:37:43;27.10;99.90
26691;DHT22;14307;51.718;8.938;2023-06-10T10:40:11;27.30;99.90
26691;DHT22;14307;51.718;8.938;2023-06-10T10:42:39;27.00;99.90
26691;DHT22;14307;51.718;8.938;2023-06-10T10:45:07;27.40;99.90
26691;DHT22;14307;51.718;8.938;2023-06-10T10:47:36;27.30;99.90
26691;DHT22;14307;51.718;8.938;2023-06-10T10:50:17;26.40;99.90
26691;DHT22;14307;51.718;8.938;2023-06-10T10:52:58;26.00;99.90
26691;DHT22;14307;51.718;8.938;2023-06-10T10:55:26;26.20;99.90
26691;DHT22;14307;51.718;8.938;2023-06-10T10:58:07;26.10;99.90
26691;DHT22;14307;51.718;8.938;2023-06-10T11:00:35;26.40;99.90
26691;DHT22;14307;51.718;8.938;2023-06-10T11:05:43;25.90;99.90
26691;DHT22;14307;51.718;8.938;2023-06-10T11:11:18;26.30;99.90
26691;DHT22;14307;51.718;8.938;2023-06-10T11:16:28;26.90;99.90
26691;DHT22;14307;51.718;8.938;2023-06-10T11:18:56;27.00;99.90
26691;DHT22;14307;51.718;8.938;2023-06-10T11:21:25;26.60;99.90
26691;DHT22;14307;51.718;8.938;2023-06-10T11:23:58;26.60;99.90
26691;DHT22;14307;51.718;8.938;2023-06-10T11:31:30;27.80;99.90
26691;DHT22;14307;51.718;8.938;2023-06-10T11:33:59;27.60;99.90
26691;DHT22;14307;51.718;8.938;2023-06-10T11:36:28;27.00;99.90
26691;DHT22;14307;51.718;8.938;2023-06-10T11:39:00;26.90;99.90
26691;DHT22;14307;51.718;8.938;2023-06-10T11:41:28;27.00;99.90
26691;DHT22;14307;51.718;8.938;2023-06-10T11:43:56;26.70;99.90
26691;DHT22;14307;51.718;8.938;2023-06-10T11:46:23;27.00;99.90
26691;DHT22;14307;51.718;8.938;2023-06-10T11:48:59;26.90;99.90
26691;DHT22;14307;51.718;8.938;2023-06-10T11:51:28;26.60;99.90
26691;DHT22;14307;51.718;8.938;2023-06-10T11:53:55;26.30;99.90
26691;DHT22;14307;51.718;8.938;2023-06-10T11:56:27;26.70;99.90
26691;DHT22;14307;51.718;8.938;2023-06-10T11:58:59;27.10;99.90
26691;DHT22;14307;51.718;8.938;2023-06-10T12:01:27;27.20;99.90
26691;DHT22;14307;51.718;8.938;2023-06-10T12:04:04;26.70;99.90
26691;DHT22;14307;51.718;8.938;2023-06-10T12:09:14;27.10;99.90
26691;DHT22;14307;51.718;8.938;2023-06-10T12:12:02;26.80;99.90
26691;DHT22;14307;51.718;8.938;2023-06-10T12:19:51;26.40;99.90
26691;DHT22;14307;51.718;8.938;2023-06-10T12:22:18;26.60;99.90
26691;DHT22;14307;51.718;8.938;2023-06-10T12:25:06;26.80;99.90
26691;DHT22;14307;51.718;8.938;2023-06-10T12:27:35;27.70;99.90
26691;DHT22;14307;51.718;8.938;2023-06-10T12:30:04;27.30;99.90
26691;DHT22;14307;51.718;8.938;2023-06-10T12:32:43;27.20;99.90
26691;DHT22;14307;51.718;8.938;2023-06-10T12:35:11;26.50;99.90
26691;DHT22;14307;51.718;8.938;2023-06-10T12:37:40;26.00;99.90
26691;DHT22;14307;51.718;8.938;2023-06-10T12:40:10;26.50;99.90
26691;DHT22;14307;51.718;8.938;2023-06-10T12:42:38;26.80;99.90
26691;DHT22;14307;51.718;8.938;2023-06-10T12:45:06;27.20;99.90
26691;DHT22;14307;51.718;8.938;2023-06-10T12:47:37;26.80;99.90
26691;DHT22;14307;51.718;8.938;2023-06-10T12:50:06;26.80;99.90
26691;DHT22;14307;51.718;8.938;2023-06-10T12:52:33;27.20;99.90
26691;DHT22;14307;51.718;8.938;2023-06-10T12:54:59;27.30;99.90
26691;DHT22;14307;51.718;8.938;2023-06-10T12:57:27;27.10;99.90
26691;DHT22;14307;51.718;8.938;2023-06-10T12:59:54;26.90;99.90
26691;DHT22;14307;51.718;8.938;2023-06-10T13:02:23;26.90;99.90
26691;DHT22;14307;51.718;8.938;2023-06-10T13:04:50;27.10;99.90
26691;DHT22;14307;51.718;8.938;2023-06-10T13:07:18;26.50;99.90
26691;DHT22;14307;51.718;8.938;2023-06-10T13:09:44;26.90;99.90
26691;DHT22;14307;51.718;8.938;2023-06-10T13:12:15;27.40;99.90
26691;DHT22;14307;51.718;8.938;2023-06-10T13:14:43;27.50;99.90
26691;DHT22;14307;51.718;8.938;2023-06-10T13:17:10;27.20;99.90
26691;DHT22;14307;51.718;8.938;2023-06-10T13:19:36;27.10;99.90
26691;DHT22;14307;51.718;8.938;2023-06-10T13:22:03;27.50;99.90
26691;DHT22;14307;51.718;8.938;2023-06-10T13:24:30;27.50;99.90
26691;DHT22;14307;51.718;8.938;2023-06-10T13:26:57;27.50;99.90
26691;DHT22;14307;51.718;8.938;2023-06-10T13:29:24;27.10;99.90
26691;DHT22;14307;51.718;8.938;2023-06-10T13:31:50;27.20;99.90
26691;DHT22;14307;51.718;8.938;2023-06-10T13:34:17;26.70;99.90
26691;DHT22;14307;51.718;8.938;2023-06-10T13:36:44;26.60;99.90
26691;DHT22;14307;51.718;8.938;2023-06-10T13:39:11;26.60;99.90
26691;DHT22;14307;51.718;8.938;2023-06-10T13:41:40;26.60;99.90
26691;DHT22;14307;51.718;8.938;2023-06-10T13:44:07;27.10;99.90
26691;DHT22;14307;51.718;8.938;2023-06-10T13:46:34;27.20;99.90
26691;DHT22;14307;51.718;8.938;2023-06-10T13:49:01;26.90;99.90
26691;DHT22;14307;51.718;8.938;2023-06-10T13:51:28;26.50;99.90
26691;DHT22;14307;51.718;8.938;2023-06-10T13:53:55;26.60;99.90
26691;DHT22;14307;51.718;8.938;2023-06-10T13:56:21;26.60;99.90
26691;DHT22;14307;51.718;8.938;2023-06-10T13:58:48;27.00;99.90
26691;DHT22;14307;51.718;8.938;2023-06-10T14:01:15;27.20;99.90
26691;DHT22;14307;51.718;8.938;2023-06-10T14:03:42;27.50;99.90
26691;DHT22;14307;51.718;8.938;2023-06-10T14:06:09;27.00;99.90
26691;DHT22;14307;51.718;8.938;2023-06-10T14:08:36;26.70;99.90
26691;DHT22;14307;51.718;8.938;2023-06-10T14:11:03;26.80;99.90
26691;DHT22;14307;51.718;8.938;2023-06-10T14:13:30;26.80;99.90
26691;DHT22;14307;51.718;8.938;2023-06-10T14:15:57;27.10;99.90
26691;DHT22;14307;51.718;8.938;2023-06-10T14:18:24;27.50;99.90
26691;DHT22;14307;51.718;8.938;2023-06-10T14:20:51;27.70;99.90
26691;DHT22;14307;51.718;8.938;2023-06-10T14:23:17;27.90;99.90
26691;DHT22;14307;51.718;8.938;2023-06-10T14:25:44;27.80;99.90
26691;DHT22;14307;51.718;8.938;2023-06-10T14:28:15;27.70;99.90
26691;DHT22;14307;51.718;8.938;2023-06-10T14:30:41;27.50;99.90
26691;DHT22;14307;51.718;8.938;2023-06-10T14:33:08;27.40;99.90
26691;DHT22;14307;51.718;8.938;2023-06-10T14:35:35;27.40;99.90
26691;DHT22;14307;51.718;8.938;2023-06-10T14:38:02;26.80;99.90
26691;DHT22;14307;51.718;8.938;2023-06-10T14:40:32;26.60;99.90
26691;DHT22;14307;51.718;8.938;2023-06-10T14:42:58;26.70;99.90
26691;DHT22;14307;51.718;8.938;2023-06-10T14:45:27;26.80;99.90
26691;DHT22;14307;51.718;8.938;2023-06-10T14:47:54;27.10;99.90
26691;DHT22;14307;51.718;8.938;2023-06-10T14:50:21;26.80;99.90
26691;DHT22;14307;51.718;8.938;2023-06-10T14:52:47;26.80;99.90
26691;DHT22;14307;51.718;8.938;2023-06-10T14:55:14;26.20;99.90
26691;DHT22;14307;51.718;8.938;2023-06-10T14:57:42;25.80;99.90
26691;DHT22;14307;51.718;8.938;2023-06-10T15:00:09;25.70;99.90
26691;DHT22;14307;51.718;8.938;2023-06-10T15:02:36;25.40;99.90
26691;DHT22;14307;51.718;8.938;2023-06-10T15:05:03;25.30;99.90
26691;DHT22;14307;51.718;8.938;2023-06-10T15:07:30;25.10;99.90
26691;DHT22;14307;51.718;8.938;2023-06-10T15:09:57;25.20;99.90
26691;DHT22;14307;51.718;8.938;2023-06-10T15:12:23;25.00;99.90
26691;DHT22;14307;51.718;8.938;2023-06-10T15:14:51;25.00;99.90
26691;DHT22;14307;51.718;8.938;2023-06-10T15:17:18;25.10;99.90
26691;DHT22;14307;51.718;8.938;2023-06-10T15:19:45;25.50;99.90
26691;DHT22;14307;51.718;8.938;2023-06-10T15:22:12;26.20;99.90
26691;DHT22;14307;51.718;8.938;2023-06-10T15:24:39;26.50;99.90
26691;DHT22;14307;51.718;8.938;2023-06-10T15:27:06;26.60;99.90
26691;DHT22;14307;51.718;8.938;2023-06-10T15:29:33;26.70;99.90
26691;DHT22;14307;51.718;8.938;2023-06-10T15:31:59;26.60;99.90
26691;DHT22;14307;51.718;8.938;2023-06-10T15:34:26;26.20;99.90
26691;DHT22;14307;51.718;8.938;2023-06-10T15:36:53;25.80;99.90
26691;DHT22;14307;51.718;8.938;2023-06-10T15:39:20;25.20;99.90
26691;DHT22;14307;51.718;8.938;2023-06-10T15:41:47;24.70;99.90
26691;DHT22;14307;51.718;8.938;2023-06-10T15:44:13;24.40;99.90
26691;DHT22;14307;51.718;8.938;2023-06-10T15:46:40;24.10;99.90
26691;DHT22;14307;51.718;8.938;2023-06-10T15:49:07;23.90;99.90
26691;DHT22;14307;51.718;8.938;2023-06-10T15:51:33;24.30;99.90
26691;DHT22;14307;51.718;8.938;2023-06-10T15:54:00;24.90;99.90
26691;DHT22;14307;51.718;8.938;2023-06-10T15:56:27;25.60;99.90
26691;DHT22;14307;51.718;8.938;2023-06-10T15:58:53;26.00;99.90
26691;DHT22;14307;51.718;8.938;2023-06-10T16:01:20;24.80;99.90